< Typhoon 195209 1952 Season Typhoon 195211 >
Typhoon 195210 (LOIS)
General InformationTrack Information on Google Maps || Disaster Info.ResourceGoogle EarthGE AnimationAtom FeedGeoJSON
Detalied Best Track (Time Zone = UTC)
Year Month Day Hour Lat. Long. Pressure (hPa) Wind (kt) Class Image Chart
1952 8 22 06 10.0 135.0 1008 0 2 -- Chart
1952 8 22 12 10.0 134.0 1006 0 2 -- Chart
1952 8 22 18 10.1 133.0 1006 0 2 -- Chart
1952 8 23 00 11.0 132.0 1004 0 2 -- Chart
1952 8 23 06 11.7 130.8 1004 0 2 -- Chart
1952 8 23 12 12.5 129.5 1004 0 2 -- Chart
1952 8 23 18 13.3 128.2 1004 0 2 -- Chart
1952 8 24 00 14.0 127.0 1004 0 2 -- Chart
1952 8 24 06 14.8 125.8 1004 0 2 -- Chart
1952 8 24 12 15.4 124.3 1004 0 2 -- Chart
1952 8 24 18 15.8 123.2 1004 0 2 -- Chart
1952 8 25 00 16.2 122.0 1004 0 2 -- Chart
1952 8 25 06 16.4 121.2 1004 0 2 -- Chart
1952 8 25 12 16.3 120.4 1004 0 2 -- Chart
1952 8 25 18 16.1 119.2 1000 0 2 -- Chart
1952 8 26 00 16.2 118.0 995 0 2 -- Chart
1952 8 26 06 16.5 116.9 992 0 9 -- Chart
1952 8 26 12 16.8 115.8 990 0 9 -- Chart
1952 8 26 18 17.3 114.7 988 0 9 -- Chart
1952 8 27 00 17.6 113.7 987 0 9 -- Chart
1952 8 27 06 18.0 112.5 980 0 9 -- Chart
1952 8 27 12 18.4 111.5 975 0 9 -- Chart
1952 8 27 18 18.8 110.5 975 0 9 -- Chart
1952 8 28 00 19.2 109.4 980 0 9 -- Chart
1952 8 28 06 19.5 108.3 980 0 9 -- Chart
1952 8 28 12 19.8 107.2 985 0 9 -- Chart
1952 8 28 18 20.3 106.1 985 0 9 -- Chart
1952 8 29 00 20.5 105.1 985 0 9 -- Chart
1952 8 29 06 20.7 104.1 990 0 9 -- Chart
1952 8 29 12 21.0 103.1 994 0 9 -- Chart
1952 8 29 18 21.2 102.0 996 0 9 -- Chart
1952 8 30 00 21.5 101.0 998 0 2 -- Chart
Japan Meteorological Agency Best Track Data | Correction Date : 1989-06-01
< Typhoon 195209 1952 Season Typhoon 195211 >

Help